Pintail — WDF5177 — position and weather

sailwx.info

Track history (hours):
 
Tides and Currents Weather Stations Pressure Air Temp Water Temp Dewpoint Dewpoint Depression Visibility Wind Speed Wind Dir Waves Ship Positions

Pintail

Owner: Pintail Marine Services, Inc, Friday Harbor, WA. More information available from US FCC via Universal Licensing System and Coast Guard Vessel Documentation Center.

Last reported at 2016-May-26 22:32 UTC. Time now 2016-May-26 22:34 UTC.
Position N 48°32' W 122°60'.

Length 19 m.

Type: Towing. MMSI: 367460260.

Date/timePositionNaut miles runAvg speedWind from/ knotsBaromVisibWave heightAir tempDewpointWater temp
2016-May-26 22:32N 48°32' W 122°60'0 0.0
2016-May-26 21:26N 48°32' W 122°60'0 0.1
2016-May-26 20:33N 48°32' W 122°60'5 4.9
2016-May-26 19:33N 48°34' W 122°54'5 5.5
2016-May-26 18:33N 48°32' W 122°46'7 6.6
2016-May-26 17:33N 48°31' W 122°36'6 3.9
2016-May-26 16:07N 48°32' W 122°45'3 5.9
2016-May-26 15:33N 48°32' W 122°50'5 4.7
2016-May-26 14:33N 48°33' W 122°57'2 2.2
2016-May-26 13:30N 48°32' W 122°60'0 0.0
2016-May-26 12:30N 48°32' W 122°60'0 0.0
2016-May-26 11:33N 48°32' W 122°60'0 0.0
2016-May-26 10:33N 48°32' W 122°60'0 0.0
2016-May-26 09:33N 48°32' W 122°60'0 0.0
2016-May-26 08:33N 48°32' W 122°60'0 0.0
2016-May-26 07:33N 48°32' W 122°60'0 0.0
2016-May-26 06:33N 48°32' W 122°60'0 0.0
2016-May-26 05:30N 48°32' W 122°60'0 0.0
2016-May-26 04:33N 48°32' W 122°60'0 0.0
2016-May-26 03:33N 48°32' W 122°60'0 0.0
2016-May-26 02:33N 48°32' W 122°60'0 0.0
2016-May-26 01:33N 48°32' W 122°60'0 0.0
2016-May-26 00:33N 48°32' W 122°60'0 0.0
2016-May-25 23:33N 48°32' W 122°60'0 0.0
2016-May-25 22:33N 48°32' W 122°60'0 0.0
2016-May-25 21:33N 48°32' W 122°60'0 0.0
2016-May-25 20:33N 48°32' W 122°60'0 0.0
2016-May-25 19:33N 48°32' W 122°60'0 0.0
2016-May-25 18:33N 48°32' W 122°60'0 0.0
2016-May-25 17:33N 48°32' W 122°60'0 0.0
2016-May-25 16:33N 48°32' W 122°60'0 0.0
2016-May-25 15:33N 48°32' W 122°60'0 0.0
2016-May-25 14:30N 48°32' W 122°60'0 0.0
2016-May-25 13:33N 48°32' W 122°60'0 0.0
2016-May-25 12:33N 48°32' W 122°60'0 0.0
2016-May-25 11:33N 48°32' W 122°60'0 0.0
2016-May-25 10:30N 48°32' W 122°60'0 0.0
2016-May-25 09:30N 48°32' W 122°60'0 0.0
2016-May-25 08:33N 48°32' W 122°60'0 0.0
2016-May-25 07:33N 48°32' W 122°60'0 0.0
2016-May-25 06:33N 48°32' W 122°60'0 0.0
2016-May-25 05:33N 48°32' W 122°60'0 0.0
2016-May-25 04:33N 48°32' W 122°60'0 0.0
2016-May-25 03:33N 48°32' W 122°60'0 0.0
2016-May-25 02:33N 48°32' W 122°60'0 0.0
2016-May-25 01:33N 48°32' W 122°60'0 0.0
2016-May-25 00:30N 48°32' W 122°60'0 0.0
2016-May-24 23:33N 48°32' W 122°60'0 0.0
2016-May-24 22:33N 48°32' W 122°60'0 0.0
2016-May-24 21:33N 48°32' W 122°60'0 0.0
2016-May-24 20:30N 48°32' W 122°60'0 0.0
2016-May-24 19:30N 48°32' W 122°60'0 0.0
2016-May-24 18:33N 48°32' W 122°60'0 0.0
2016-May-24 17:33N 48°32' W 122°60'0 0.0
2016-May-24 16:33N 48°32' W 122°60'0 0.0
2016-May-24 15:33N 48°32' W 122°60'0 0.0
2016-May-24 14:33N 48°32' W 122°60'0 0.0
2016-May-24 13:33N 48°32' W 122°60'0 0.0
2016-May-24 12:33N 48°32' W 122°60'0 0.0
2016-May-24 11:33N 48°32' W 122°60'0 0.0
2016-May-24 10:33N 48°32' W 122°60'0 0.0
2016-May-24 09:33N 48°32' W 122°60'0 0.0
2016-May-24 08:33N 48°32' W 122°60'0 0.0
2016-May-24 07:33N 48°32' W 122°60'0 0.0
2016-May-24 06:33N 48°32' W 122°60'0 0.0
2016-May-24 05:33N 48°32' W 122°60'0 0.0
2016-May-24 04:33N 48°32' W 122°60'0 0.0
2016-May-24 03:33N 48°32' W 122°60'0 0.0
2016-May-24 02:33N 48°32' W 122°60'0 0.0
2016-May-24 01:33N 48°32' W 122°60'0 0.0
2016-May-24 00:27N 48°32' W 122°60'0 0.0
2016-May-23 23:33N 48°32' W 122°60'0 0.0
2016-May-23 22:33N 48°32' W 122°60'0 0.0
2016-May-23 21:33N 48°32' W 122°60'1 1.1
2016-May-23 20:31N 48°32' W 122°58'5 4.9
2016-May-23 19:33N 48°34' W 122°52'5 5.3
2016-May-23 18:33N 48°32' W 122°44'5 4.5
2016-May-23 17:22N 48°31' W 122°36'1 0.8
2016-May-23 16:33N 48°31' W 122°37'4 4.2
2016-May-23 15:31N 48°32' W 122°44'5 5.4
2016-May-23 14:33N 48°33' W 122°51'5 4.9
2016-May-23 13:32N 48°33' W 122°59'1 1.1
2016-May-23 12:28N 48°32' W 122°60'0 0.0
2016-May-23 11:31N 48°32' W 122°60'0 0.0
2016-May-23 10:31N 48°32' W 122°60'0 0.0
2016-May-23 09:33N 48°32' W 122°60'0 0.0
2016-May-23 08:33N 48°32' W 122°60'0 0.0
2016-May-23 07:30N 48°32' W 122°60'0 0.0
2016-May-23 06:33N 48°32' W 122°60'0 0.0
2016-May-23 05:30N 48°32' W 122°60'0 0.0
2016-May-23 04:33N 48°32' W 122°60'0 0.0
2016-May-23 03:30N 48°32' W 122°60'0 0.0
2016-May-23 02:33N 48°32' W 122°60'0 0.0
2016-May-23 01:31N 48°32' W 122°60'0 0.0
2016-May-23 00:33N 48°32' W 122°60'0 0.0
2016-May-22 23:33N 48°32' W 122°60'0 0.0
2016-May-22 22:33N 48°32' W 122°60'0 0.0
2016-May-22 21:33N 48°32' W 122°60'0 0.0
2016-May-22 20:31N 48°32' W 122°60'0 0.1
2016-May-22 19:33N 48°32' W 123°00'0 0.0
2016-May-22 18:33N 48°32' W 123°00'0 0.1
2016-May-22 17:33N 48°32' W 122°60'0 0.0
2016-May-22 16:33N 48°32' W 122°60'0 0.0
2016-May-22 15:33N 48°32' W 122°60'0 0.0
2016-May-22 14:33N 48°32' W 122°60'0 0.0
2016-May-22 13:33N 48°32' W 122°60'0 0.0
2016-May-22 12:33N 48°32' W 122°60'0 0.0
2016-May-22 11:33N 48°32' W 122°60'0 0.0
2016-May-22 10:33N 48°32' W 122°60'0 0.0
2016-May-22 09:33N 48°32' W 122°60'0 0.0
2016-May-22 08:33N 48°32' W 122°60'0 0.0
2016-May-22 07:33N 48°32' W 122°60'0 0.0
2016-May-22 06:33N 48°32' W 122°60'0 0.0
2016-May-22 05:33N 48°32' W 122°60'0 0.0
2016-May-22 04:33N 48°32' W 122°60'0 0.0
2016-May-22 03:33N 48°32' W 122°60'0 0.0
2016-May-22 02:33N 48°32' W 122°60'0 0.0
2016-May-22 01:33N 48°32' W 122°60'0 0.0
2016-May-22 00:30N 48°32' W 122°60'0 0.0
2016-May-21 23:33N 48°32' W 122°60'0 0.0
2016-May-21 22:33N 48°32' W 122°60'0 0.0
2016-May-21 21:33N 48°32' W 122°60'0 0.0
2016-May-21 20:33N 48°32' W 122°60'0 0.0
2016-May-21 19:31N 48°32' W 122°60'0 0.0
2016-May-21 18:33N 48°32' W 122°60'0 0.0
2016-May-21 17:33N 48°32' W 122°60'0 0.0
2016-May-21 16:33N 48°32' W 122°60'0 0.0
2016-May-21 15:33N 48°32' W 122°60'0 0.0
2016-May-21 14:27N 48°32' W 122°60'0 0.0
2016-May-21 13:33N 48°32' W 122°60'0 0.0
2016-May-21 12:33N 48°32' W 122°60'0 0.0
2016-May-21 11:33N 48°32' W 122°60'0 0.0
2016-May-21 10:30N 48°32' W 122°60'0 0.0
2016-May-21 09:33N 48°32' W 122°60'0 0.0
2016-May-21 08:33N 48°32' W 122°60'0 0.0
2016-May-21 03:33N 48°32' W 122°60'3 0.6
2016-May-20 22:22N 48°35' W 123°02'3 3.9
2016-May-20 21:31N 48°32' W 122°60'0 0.0
2016-May-20 20:31N 48°32' W 122°60'0 0.0
2016-May-20 19:31N 48°32' W 122°60'0 0.4
2016-May-20 18:31N 48°32' W 123°00'0 0.4
2016-May-20 17:33N 48°32' W 122°60'0 0.0
2016-May-20 16:33N 48°32' W 122°60'0 0.0
2016-May-20 15:33N 48°32' W 122°60'0 0.0
2016-May-20 14:33N 48°32' W 122°60'0 0.0
2016-May-20 13:33N 48°32' W 122°60'0 0.0
2016-May-20 12:30N 48°32' W 122°60'0 0.0
2016-May-20 11:33N 48°32' W 122°60'0 0.0
2016-May-20 10:33N 48°32' W 122°60'0 0.0
2016-May-20 09:33N 48°32' W 122°60'0 0.0
2016-May-20 08:33N 48°32' W 122°60'0 0.0
2016-May-20 07:30N 48°32' W 122°60'0 0.0
2016-May-20 06:33N 48°32' W 122°60'0 0.0
2016-May-20 05:33N 48°32' W 122°60'0 0.0
2016-May-20 04:33N 48°32' W 122°60'0 0.0
2016-May-20 03:33N 48°32' W 122°60'0 0.0
2016-May-20 02:33N 48°32' W 122°60'0 0.0
2016-May-20 01:27N 48°32' W 122°60'0 0.0
2016-May-20 00:30N 48°32' W 122°60'0 0.0
2016-May-19 23:33N 48°32' W 122°60'0 0.0
2016-May-19 22:33N 48°32' W 122°60'0 0.0
2016-May-19 21:33N 48°32' W 122°60'0 0.1
2016-May-19 20:33N 48°32' W 122°60'5 5.0
2016-May-19 19:33N 48°34' W 122°53'6 5.4
2016-May-19 18:31N 48°32' W 122°46'5 5.7
2016-May-19 17:33N 48°31' W 122°37'2 2.3
2016-May-19 16:30N 48°32' W 122°41'6 6.0
2016-May-19 15:33N 48°32' W 122°50'5 5.2
2016-May-19 14:33N 48°33' W 122°57'2 1.9
2016-May-19 13:34N 48°32' W 122°60'0 0.0
2016-May-19 12:33N 48°32' W 122°60'0 0.0
2016-May-19 11:34N 48°32' W 122°60'0 0.0
2016-May-19 10:34N 48°32' W 122°60'0 0.0
2016-May-19 09:31N 48°32' W 122°60'0 0.0
2016-May-19 08:31N 48°32' W 122°60'0 0.0
2016-May-19 07:31N 48°32' W 122°60'0 0.0
2016-May-19 06:34N 48°32' W 122°60'0 0.0
2016-May-19 05:31N 48°32' W 122°60'0 0.0
2016-May-19 04:31N 48°32' W 122°60'0 0.0
2016-May-19 03:31N 48°32' W 122°60'0 0.0
2016-May-19 02:31N 48°32' W 122°60'0 0.0
2016-May-19 01:31N 48°32' W 122°60'0 0.0
2016-May-19 00:25N 48°32' W 122°60'0 0.0
2016-May-18 23:31N 48°32' W 122°60'0 0.0
2016-May-18 22:31N 48°32' W 122°60'0 0.0
2016-May-18 21:33N 48°32' W 122°60'0 0.0
2016-May-18 20:33N 48°32' W 122°60'0 0.0
2016-May-18 19:33N 48°32' W 122°60'0 0.0
2016-May-18 18:33N 48°32' W 122°60'0 0.0
2016-May-18 17:32N 48°32' W 122°60'0 0.0
2016-May-18 16:32N 48°32' W 122°60'0 0.0
2016-May-18 15:32N 48°32' W 122°60'0 0.0
2016-May-18 14:29N 48°32' W 122°60'0 0.0
2016-May-18 13:32N 48°32' W 122°60'0 0.0
2016-May-18 12:32N 48°32' W 122°60'0 0.0
2016-May-18 11:32N 48°32' W 122°60'0 0.0
2016-May-18 10:32N 48°32' W 122°60'0 0.0
2016-May-18 09:32N 48°32' W 122°60'0 0.0
2016-May-18 08:29N 48°32' W 122°60'0 0.0
2016-May-18 07:32N 48°32' W 122°60'0 0.0
2016-May-18 06:32N 48°32' W 122°60'0 0.0
2016-May-18 05:32N 48°32' W 122°60'0 0.0
2016-May-18 04:32N 48°32' W 122°60'0 0.0
2016-May-18 03:32N 48°32' W 122°60'0 0.0
2016-May-18 02:32N 48°32' W 122°60'8 3.3
2016-May-18 00:08N 48°36' W 123°10'8 1.7
2016-May-17 19:33N 48°32' W 123°00'0 0.1
2016-May-17 18:31N 48°32' W 122°60'0 0.0
2016-May-17 17:31N 48°32' W 122°60'0 0.0
2016-May-17 16:31N 48°32' W 122°60'0 0.0
2016-May-17 15:28N 48°32' W 122°60'0 0.0
2016-May-17 14:31N 48°32' W 122°60'0 0.0
2016-May-17 13:31N 48°32' W 122°60'0 0.0
2016-May-17 12:31N 48°32' W 122°60'0 0.0
2016-May-17 11:31N 48°32' W 122°60'0 0.0
2016-May-17 10:32N 48°32' W 122°60'0 0.0
2016-May-17 09:32N 48°32' W 122°60'0 0.0
2016-May-17 08:29N 48°32' W 122°60'0 0.0
2016-May-17 07:29N 48°32' W 122°60'0 0.0
2016-May-17 06:32N 48°32' W 122°60'0 0.0
2016-May-17 05:29N 48°32' W 122°60'0 0.0
2016-May-17 04:29N 48°32' W 122°60'0 0.0
2016-May-17 03:32N 48°32' W 122°60'0 0.0
2016-May-17 02:29N 48°32' W 122°60'0 0.0
2016-May-17 01:32N 48°32' W 122°60'0 0.0
2016-May-17 00:32N 48°32' W 122°60'0 0.0
2016-May-16 23:32N 48°32' W 122°60'  
Track history (hours):
 
Tides and Currents Weather Stations Pressure Air Temp Water Temp Dewpoint Dewpoint Depression Visibility Wind Speed Wind Dir Waves Ship Positions

Pintail

Owner: Pintail Marine Services, Inc, Friday Harbor, WA. More information available from US FCC via Universal Licensing System and Coast Guard Vessel Documentation Center.

Last reported at 2016-May-26 22:32 UTC. Time now 2016-May-26 22:34 UTC.
Position N 48°32' W 122°60'.

Length 19 m.

Type: Towing. MMSI: 367460260.

Date/timePositionNaut miles runAvg speedWind from/ knotsBaromVisibWave heightAir tempDewpointWater temp
2016-May-26 22:32N 48°32' W 122°60'0 0.0
2016-May-26 21:26N 48°32' W 122°60'0 0.1
2016-May-26 20:33N 48°32' W 122°60'5 4.9
2016-May-26 19:33N 48°34' W 122°54'5 5.5
2016-May-26 18:33N 48°32' W 122°46'7 6.6
2016-May-26 17:33N 48°31' W 122°36'6 3.9
2016-May-26 16:07N 48°32' W 122°45'3 5.9
2016-May-26 15:33N 48°32' W 122°50'5 4.7
2016-May-26 14:33N 48°33' W 122°57'2 2.2
2016-May-26 13:30N 48°32' W 122°60'0 0.0
2016-May-26 12:30N 48°32' W 122°60'0 0.0
2016-May-26 11:33N 48°32' W 122°60'0 0.0
2016-May-26 10:33N 48°32' W 122°60'0 0.0
2016-May-26 09:33N 48°32' W 122°60'0 0.0
2016-May-26 08:33N 48°32' W 122°60'0 0.0
2016-May-26 07:33N 48°32' W 122°60'0 0.0
2016-May-26 06:33N 48°32' W 122°60'0 0.0
2016-May-26 05:30N 48°32' W 122°60'0 0.0
2016-May-26 04:33N 48°32' W 122°60'0 0.0
2016-May-26 03:33N 48°32' W 122°60'0 0.0
2016-May-26 02:33N 48°32' W 122°60'0 0.0
2016-May-26 01:33N 48°32' W 122°60'0 0.0
2016-May-26 00:33N 48°32' W 122°60'0 0.0
2016-May-25 23:33N 48°32' W 122°60'0 0.0
2016-May-25 22:33N 48°32' W 122°60'0 0.0
2016-May-25 21:33N 48°32' W 122°60'0 0.0
2016-May-25 20:33N 48°32' W 122°60'0 0.0
2016-May-25 19:33N 48°32' W 122°60'0 0.0
2016-May-25 18:33N 48°32' W 122°60'0 0.0
2016-May-25 17:33N 48°32' W 122°60'0 0.0
2016-May-25 16:33N 48°32' W 122°60'0 0.0
2016-May-25 15:33N 48°32' W 122°60'0 0.0
2016-May-25 14:30N 48°32' W 122°60'0 0.0
2016-May-25 13:33N 48°32' W 122°60'0 0.0
2016-May-25 12:33N 48°32' W 122°60'0 0.0
2016-May-25 11:33N 48°32' W 122°60'0 0.0
2016-May-25 10:30N 48°32' W 122°60'0 0.0
2016-May-25 09:30N 48°32' W 122°60'0 0.0
2016-May-25 08:33N 48°32' W 122°60'0 0.0
2016-May-25 07:33N 48°32' W 122°60'0 0.0
2016-May-25 06:33N 48°32' W 122°60'0 0.0
2016-May-25 05:33N 48°32' W 122°60'0 0.0
2016-May-25 04:33N 48°32' W 122°60'0 0.0
2016-May-25 03:33N 48°32' W 122°60'0 0.0
2016-May-25 02:33N 48°32' W 122°60'0 0.0
2016-May-25 01:33N 48°32' W 122°60'0 0.0
2016-May-25 00:30N 48°32' W 122°60'0 0.0
2016-May-24 23:33N 48°32' W 122°60'0 0.0
2016-May-24 22:33N 48°32' W 122°60'0 0.0
2016-May-24 21:33N 48°32' W 122°60'0 0.0
2016-May-24 20:30N 48°32' W 122°60'0 0.0
2016-May-24 19:30N 48°32' W 122°60'0 0.0
2016-May-24 18:33N 48°32' W 122°60'0 0.0
2016-May-24 17:33N 48°32' W 122°60'0 0.0
2016-May-24 16:33N 48°32' W 122°60'0 0.0
2016-May-24 15:33N 48°32' W 122°60'0 0.0
2016-May-24 14:33N 48°32' W 122°60'0 0.0
2016-May-24 13:33N 48°32' W 122°60'0 0.0
2016-May-24 12:33N 48°32' W 122°60'0 0.0
2016-May-24 11:33N 48°32' W 122°60'0 0.0
2016-May-24 10:33N 48°32' W 122°60'0 0.0
2016-May-24 09:33N 48°32' W 122°60'0 0.0
2016-May-24 08:33N 48°32' W 122°60'0 0.0
2016-May-24 07:33N 48°32' W 122°60'0 0.0
2016-May-24 06:33N 48°32' W 122°60'0 0.0
2016-May-24 05:33N 48°32' W 122°60'0 0.0
2016-May-24 04:33N 48°32' W 122°60'0 0.0
2016-May-24 03:33N 48°32' W 122°60'0 0.0
2016-May-24 02:33N 48°32' W 122°60'0 0.0
2016-May-24 01:33N 48°32' W 122°60'0 0.0
2016-May-24 00:27N 48°32' W 122°60'0 0.0
2016-May-23 23:33N 48°32' W 122°60'0 0.0
2016-May-23 22:33N 48°32' W 122°60'0 0.0
2016-May-23 21:33N 48°32' W 122°60'1 1.1
2016-May-23 20:31N 48°32' W 122°58'5 4.9
2016-May-23 19:33N 48°34' W 122°52'5 5.3
2016-May-23 18:33N 48°32' W 122°44'5 4.5
2016-May-23 17:22N 48°31' W 122°36'1 0.8
2016-May-23 16:33N 48°31' W 122°37'4 4.2
2016-May-23 15:31N 48°32' W 122°44'5 5.4
2016-May-23 14:33N 48°33' W 122°51'5 4.9
2016-May-23 13:32N 48°33' W 122°59'1 1.1
2016-May-23 12:28N 48°32' W 122°60'0 0.0
2016-May-23 11:31N 48°32' W 122°60'0 0.0
2016-May-23 10:31N 48°32' W 122°60'0 0.0
2016-May-23 09:33N 48°32' W 122°60'0 0.0
2016-May-23 08:33N 48°32' W 122°60'0 0.0
2016-May-23 07:30N 48°32' W 122°60'0 0.0
2016-May-23 06:33N 48°32' W 122°60'0 0.0
2016-May-23 05:30N 48°32' W 122°60'0 0.0
2016-May-23 04:33N 48°32' W 122°60'0 0.0
2016-May-23 03:30N 48°32' W 122°60'0 0.0
2016-May-23 02:33N 48°32' W 122°60'0 0.0
2016-May-23 01:31N 48°32' W 122°60'0 0.0
2016-May-23 00:33N 48°32' W 122°60'0 0.0
2016-May-22 23:33N 48°32' W 122°60'0 0.0
2016-May-22 22:33N 48°32' W 122°60'0 0.0
2016-May-22 21:33N 48°32' W 122°60'0 0.0
2016-May-22 20:31N 48°32' W 122°60'0 0.1
2016-May-22 19:33N 48°32' W 123°00'0 0.0
2016-May-22 18:33N 48°32' W 123°00'0 0.1
2016-May-22 17:33N 48°32' W 122°60'0 0.0
2016-May-22 16:33N 48°32' W 122°60'0 0.0
2016-May-22 15:33N 48°32' W 122°60'0 0.0
2016-May-22 14:33N 48°32' W 122°60'0 0.0
2016-May-22 13:33N 48°32' W 122°60'0 0.0
2016-May-22 12:33N 48°32' W 122°60'0 0.0
2016-May-22 11:33N 48°32' W 122°60'0 0.0
2016-May-22 10:33N 48°32' W 122°60'0 0.0
2016-May-22 09:33N 48°32' W 122°60'0 0.0
2016-May-22 08:33N 48°32' W 122°60'0 0.0
2016-May-22 07:33N 48°32' W 122°60'0 0.0
2016-May-22 06:33N 48°32' W 122°60'0 0.0
2016-May-22 05:33N 48°32' W 122°60'0 0.0
2016-May-22 04:33N 48°32' W 122°60'0 0.0
2016-May-22 03:33N 48°32' W 122°60'0 0.0
2016-May-22 02:33N 48°32' W 122°60'0 0.0
2016-May-22 01:33N 48°32' W 122°60'0 0.0
2016-May-22 00:30N 48°32' W 122°60'0 0.0
2016-May-21 23:33N 48°32' W 122°60'0 0.0
2016-May-21 22:33N 48°32' W 122°60'0 0.0
2016-May-21 21:33N 48°32' W 122°60'0 0.0
2016-May-21 20:33N 48°32' W 122°60'0 0.0
2016-May-21 19:31N 48°32' W 122°60'0 0.0
2016-May-21 18:33N 48°32' W 122°60'0 0.0
2016-May-21 17:33N 48°32' W 122°60'0 0.0
2016-May-21 16:33N 48°32' W 122°60'0 0.0
2016-May-21 15:33N 48°32' W 122°60'0 0.0
2016-May-21 14:27N 48°32' W 122°60'0 0.0
2016-May-21 13:33N 48°32' W 122°60'0 0.0
2016-May-21 12:33N 48°32' W 122°60'0 0.0
2016-May-21 11:33N 48°32' W 122°60'0 0.0
2016-May-21 10:30N 48°32' W 122°60'0 0.0
2016-May-21 09:33N 48°32' W 122°60'0 0.0
2016-May-21 08:33N 48°32' W 122°60'0 0.0
2016-May-21 03:33N 48°32' W 122°60'3 0.6
2016-May-20 22:22N 48°35' W 123°02'3 3.9
2016-May-20 21:31N 48°32' W 122°60'0 0.0
2016-May-20 20:31N 48°32' W 122°60'0 0.0
2016-May-20 19:31N 48°32' W 122°60'0 0.4
2016-May-20 18:31N 48°32' W 123°00'0 0.4
2016-May-20 17:33N 48°32' W 122°60'0 0.0
2016-May-20 16:33N 48°32' W 122°60'0 0.0
2016-May-20 15:33N 48°32' W 122°60'0 0.0
2016-May-20 14:33N 48°32' W 122°60'0 0.0
2016-May-20 13:33N 48°32' W 122°60'0 0.0
2016-May-20 12:30N 48°32' W 122°60'0 0.0
2016-May-20 11:33N 48°32' W 122°60'0 0.0
2016-May-20 10:33N 48°32' W 122°60'0 0.0
2016-May-20 09:33N 48°32' W 122°60'0 0.0
2016-May-20 08:33N 48°32' W 122°60'0 0.0
2016-May-20 07:30N 48°32' W 122°60'0 0.0
2016-May-20 06:33N 48°32' W 122°60'0 0.0
2016-May-20 05:33N 48°32' W 122°60'0 0.0
2016-May-20 04:33N 48°32' W 122°60'0 0.0
2016-May-20 03:33N 48°32' W 122°60'0 0.0
2016-May-20 02:33N 48°32' W 122°60'0 0.0
2016-May-20 01:27N 48°32' W 122°60'0 0.0
2016-May-20 00:30N 48°32' W 122°60'0 0.0
2016-May-19 23:33N 48°32' W 122°60'0 0.0
2016-May-19 22:33N 48°32' W 122°60'0 0.0
2016-May-19 21:33N 48°32' W 122°60'0 0.1
2016-May-19 20:33N 48°32' W 122°60'5 5.0
2016-May-19 19:33N 48°34' W 122°53'6 5.4
2016-May-19 18:31N 48°32' W 122°46'5 5.7
2016-May-19 17:33N 48°31' W 122°37'2 2.3
2016-May-19 16:30N 48°32' W 122°41'6 6.0
2016-May-19 15:33N 48°32' W 122°50'5 5.2
2016-May-19 14:33N 48°33' W 122°57'2 1.9
2016-May-19 13:34N 48°32' W 122°60'0 0.0
2016-May-19 12:33N 48°32' W 122°60'0 0.0
2016-May-19 11:34N 48°32' W 122°60'0 0.0
2016-May-19 10:34N 48°32' W 122°60'0 0.0
2016-May-19 09:31N 48°32' W 122°60'0 0.0
2016-May-19 08:31N 48°32' W 122°60'0 0.0
2016-May-19 07:31N 48°32' W 122°60'0 0.0
2016-May-19 06:34N 48°32' W 122°60'0 0.0
2016-May-19 05:31N 48°32' W 122°60'0 0.0
2016-May-19 04:31N 48°32' W 122°60'0 0.0
2016-May-19 03:31N 48°32' W 122°60'0 0.0
2016-May-19 02:31N 48°32' W 122°60'0 0.0
2016-May-19 01:31N 48°32' W 122°60'0 0.0
2016-May-19 00:25N 48°32' W 122°60'0 0.0
2016-May-18 23:31N 48°32' W 122°60'0 0.0
2016-May-18 22:31N 48°32' W 122°60'0 0.0
2016-May-18 21:33N 48°32' W 122°60'0 0.0
2016-May-18 20:33N 48°32' W 122°60'0 0.0
2016-May-18 19:33N 48°32' W 122°60'0 0.0
2016-May-18 18:33N 48°32' W 122°60'0 0.0
2016-May-18 17:32N 48°32' W 122°60'0 0.0
2016-May-18 16:32N 48°32' W 122°60'0 0.0
2016-May-18 15:32N 48°32' W 122°60'0 0.0
2016-May-18 14:29N 48°32' W 122°60'0 0.0
2016-May-18 13:32N 48°32' W 122°60'0 0.0
2016-May-18 12:32N 48°32' W 122°60'0 0.0
2016-May-18 11:32N 48°32' W 122°60'0 0.0
2016-May-18 10:32N 48°32' W 122°60'0 0.0
2016-May-18 09:32N 48°32' W 122°60'0 0.0
2016-May-18 08:29N 48°32' W 122°60'0 0.0
2016-May-18 07:32N 48°32' W 122°60'0 0.0
2016-May-18 06:32N 48°32' W 122°60'0 0.0
2016-May-18 05:32N 48°32' W 122°60'0 0.0
2016-May-18 04:32N 48°32' W 122°60'0 0.0
2016-May-18 03:32N 48°32' W 122°60'0 0.0
2016-May-18 02:32N 48°32' W 122°60'8 3.3
2016-May-18 00:08N 48°36' W 123°10'8 1.7
2016-May-17 19:33N 48°32' W 123°00'0 0.1
2016-May-17 18:31N 48°32' W 122°60'0 0.0
2016-May-17 17:31N 48°32' W 122°60'0 0.0
2016-May-17 16:31N 48°32' W 122°60'0 0.0
2016-May-17 15:28N 48°32' W 122°60'0 0.0
2016-May-17 14:31N 48°32' W 122°60'0 0.0
2016-May-17 13:31N 48°32' W 122°60'0 0.0
2016-May-17 12:31N 48°32' W 122°60'0 0.0
2016-May-17 11:31N 48°32' W 122°60'0 0.0
2016-May-17 10:32N 48°32' W 122°60'0 0.0
2016-May-17 09:32N 48°32' W 122°60'0 0.0
2016-May-17 08:29N 48°32' W 122°60'0 0.0
2016-May-17 07:29N 48°32' W 122°60'0 0.0
2016-May-17 06:32N 48°32' W 122°60'0 0.0
2016-May-17 05:29N 48°32' W 122°60'0 0.0
2016-May-17 04:29N 48°32' W 122°60'0 0.0
2016-May-17 03:32N 48°32' W 122°60'0 0.0
2016-May-17 02:29N 48°32' W 122°60'0 0.0
2016-May-17 01:32N 48°32' W 122°60'0 0.0
2016-May-17 00:32N 48°32' W 122°60'0 0.0
2016-May-16 23:32N 48°32' W 122°60'  

Dump ship's entire track history